Time;durP1;ratioP1;P1;durP2;ratioP2;P2;SDS_P1;SDS_P2;PMS_P1;PMS_P2;Temp;Humidity;BMP_temperature;BMP_pressure;BME280_temperature;BME280_humidity;BME280_pressure;Samples;Min_cycle;Max_cycle;Signal;HPM_P1;HPM_P2
2022/05/10 00:02:24;;;;;;;21.43;13.83;;;;;;;16.09;61.58;101852.25;6440203;23;20117;-79
2022/05/10 00:04:55;;;;;;;17.30;12.73;;;;;;;15.95;62.33;101845.47;6467410;23;20339;-78
2022/05/10 00:07:32;;;;;;;22.03;13.67;;;;;;;15.91;62.66;101843.78;6467102;23;20019;-79
2022/05/10 00:10:08;;;;;;;17.77;12.43;;;;;;;15.71;63.15;101849.34;6467051;23;20331;-79
2022/05/10 00:12:39;;;;;;;19.38;12.93;;;;;;;15.67;63.46;101843.28;6467117;23;20043;-79
2022/05/10 00:15:11;;;;;;;19.20;13.83;;;;;;;15.65;63.58;101841.59;6466311;23;20058;-79
2022/05/10 00:17:43;;;;;;;17.50;13.50;;;;;;;15.76;63.74;101844.03;6467049;23;20028;-79
2022/05/10 00:20:20;;;;;;;20.55;13.40;;;;;;;15.55;64.08;101835.59;6467266;23;20444;-79
2022/05/10 00:22:52;;;;;;;22.70;14.57;;;;;;;15.41;64.50;101830.59;6441533;23;20030;-79
2022/05/10 00:25:29;;;;;;;20.23;14.63;;;;;;;15.42;64.39;101831.44;6466720;23;20320;-78
2022/05/10 00:28:00;;;;;;;19.65;15.15;;;;;;;15.39;64.33;101828.88;6466260;23;20004;-79
2022/05/10 00:30:32;;;;;;;17.30;13.50;;;;;;;15.41;65.16;101820.09;6440197;23;20107;-79
2022/05/10 00:33:04;;;;;;;20.97;13.53;;;;;;;15.35;65.56;101821.94;6467084;23;20032;-79
2022/05/10 00:35:36;;;;;;;18.35;13.75;;;;;;;15.40;65.55;101813.09;6466594;23;20016;-79
2022/05/10 00:38:11;;;;;;;19.17;14.07;;;;;;;15.15;66.06;101823.13;6466292;23;20011;-78
2022/05/10 00:40:42;;;;;;;23.05;13.10;;;;;;;15.13;66.08;101823.16;6467240;23;20008;-79
2022/05/10 00:43:29;;;;;;;18.43;13.50;;;;;;;15.10;65.63;101817.94;6440393;23;20027;-79
2022/05/10 00:46:02;;;;;;;19.05;13.77;;;;;;;14.88;67.04;101813.91;6466511;23;20004;-79
2022/05/10 00:48:56;;;;;;;17.63;14.63;;;;;;;14.83;67.38;101808.72;6466445;23;20004;-79
2022/05/10 00:51:43;;;;;;;19.13;14.80;;;;;;;14.93;66.27;101810.31;6443711;23;20016;-80
2022/05/10 00:54:46;;;;;;;18.27;14.07;;;;;;;14.83;66.50;101808.72;6466257;23;20031;-79
2022/05/10 00:57:31;;;;;;;19.10;14.60;;;;;;;14.76;67.12;101809.69;6465921;23;20078;-79
2022/05/10 01:00:08;;;;;;;18.20;14.60;;;;;;;14.69;67.79;101806.28;6466228;23;20248;-79
2022/05/10 01:03:03;;;;;;;19.70;13.52;;;;;;;14.72;66.71;101802.75;6465459;23;20008;-79
2022/05/10 01:05:47;;;;;;;20.40;14.70;;;;;;;14.62;67.77;101798.50;6465629;23;20054;-79
2022/05/10 01:08:21;;;;;;;18.17;14.57;;;;;;;14.51;68.62;101803.88;6465949;23;20004;-79
2022/05/10 01:11:13;;;;;;;17.67;13.98;;;;;;;14.57;68.18;101796.78;6465958;23;20024;-79
2022/05/10 01:14:31;;;;;;;26.15;16.00;;;;;;;14.49;67.95;101795.13;6466101;23;20016;-78
2022/05/10 01:17:02;;;;;;;20.98;15.18;;;;;;;14.52;69.13;101790.72;6369994;23;20049;-81
2022/05/10 01:19:34;;;;;;;19.30;14.47;;;;;;;14.56;69.27;101787.16;6370722;23;20089;-79
2022/05/10 01:22:45;;;;;;;19.73;14.93;;;;;;;14.49;68.35;101793.41;6345360;23;20005;-78
2022/05/10 01:25:51;;;;;;;22.17;14.65;;;;;;;14.30;69.58;101786.66;6369997;23;20037;-79
2022/05/10 01:28:30;;;;;;;21.60;14.10;;;;;;;14.25;70.01;101784.09;6371063;23;20010;-79
2022/05/10 01:31:12;;;;;;;23.40;14.93;;;;;;;14.15;70.78;101783.31;6347099;23;20053;-80
2022/05/10 01:34:12;;;;;;;17.60;15.73;;;;;;;14.22;69.77;101777.09;6370375;23;20037;-80
2022/05/10 01:36:56;;;;;;;17.52;15.50;;;;;;;14.15;70.58;101775.47;6369421;23;20022;-80
2022/05/10 01:39:33;;;;;;;20.27;14.38;;;;;;;14.02;71.37;101766.88;6369949;23;20016;-79
2022/05/10 01:42:13;;;;;;;19.20;15.27;;;;;;;13.98;71.39;101767.78;6369953;23;20014;-78
2022/05/10 01:44:52;;;;;;;19.77;14.77;;;;;;;13.96;71.47;101763.41;6369231;23;20393;-79
2022/05/10 01:47:36;;;;;;;19.20;15.70;;;;;;;13.86;71.76;101760.91;6368929;23;20065;-80
2022/05/10 01:50:18;;;;;;;19.65;14.88;;;;;;;13.97;71.45;101757.31;6369283;23;20425;-79
2022/05/10 01:53:06;;;;;;;18.27;14.20;;;;;;;13.82;72.00;101753.97;6408052;23;20394;-78
2022/05/10 01:55:41;;;;;;;23.85;15.35;;;;;;;13.83;72.36;101752.22;6465933;23;20024;-78
2022/05/10 01:58:17;;;;;;;19.27;15.02;;;;;;;13.77;73.13;101747.06;6466774;23;20005;-77
2022/05/10 02:00:56;;;;;;;21.27;16.73;;;;;;;13.68;73.70;101743.66;6465990;23;20009;-78
2022/05/10 02:03:45;;;;;;;23.70;16.65;;;;;;;13.86;72.39;101747.81;6465093;23;20015;-79
2022/05/10 02:06:22;;;;;;;21.40;15.80;;;;;;;13.69;73.66;101741.88;6465995;23;20005;-79
2022/05/10 02:09:05;;;;;;;20.23;16.50;;;;;;;13.79;73.05;101740.88;6465869;23;20840;-80
2022/05/10 02:11:41;;;;;;;22.40;16.48;;;;;;;13.79;73.50;101737.41;6466842;23;20385;-80
2022/05/10 02:14:58;;;;;;;21.95;16.73;;;;;;;13.79;72.58;101737.41;6466644;23;20016;-79
2022/05/10 02:17:40;;;;;;;23.90;16.90;;;;;;;13.78;73.31;101733.94;6399761;23;20328;-79
2022/05/10 02:20:38;;;;;;;19.10;16.77;;;;;;;13.85;72.26;101735.59;6400423;23;20033;-79
2022/05/10 02:23:18;;;;;;;19.23;15.98;;;;;;;13.85;73.14;101732.97;6310185;23;20223;-79
2022/05/10 02:26:01;;;;;;;19.67;16.08;;;;;;;13.94;73.48;101728.50;6317749;23;20007;-80
2022/05/10 02:29:04;;;;;;;19.40;16.92;;;;;;;13.90;73.38;101727.69;6316622;23;20010;-80
2022/05/10 02:34:48;;;;;;;27.02;17.85;;;;;;;13.84;74.18;101709.41;6311263;23;20366;-80
2022/05/10 02:37:20;;;;;;;31.45;19.73;;;;;;;13.91;74.23;101712.81;6309865;23;20011;-79
2022/05/10 02:39:51;;;;;;;19.17;17.07;;;;;;;13.97;73.74;101715.34;6309070;23;20430;-79
2022/05/10 02:42:24;;;;;;;20.70;16.10;;;;;;;13.99;73.84;101709.22;6309783;23;20020;-79
2022/05/10 02:44:56;;;;;;;22.33;18.15;;;;;;;13.95;73.83;101704.88;6309056;23;20334;-79
2022/05/10 02:47:32;;;;;;;;;;;;;;;14.02;71.36;101706.56;6308943;23;20102;-79
2022/05/10 02:50:06;;;;;;;21.63;16.27;;;;;;;13.94;73.95;101711.03;6308860;23;19953;-78
2022/05/10 02:52:39;;;;;;;23.92;17.65;;;;;;;13.89;74.29;101712.81;6304600;23;20026;-79
2022/05/10 02:55:18;;;;;;;24.48;16.77;;;;;;;13.87;74.48;101701.50;6279753;23;20450;-78
2022/05/10 02:57:52;;;;;;;22.25;16.67;;;;;;;13.81;74.83;101697.22;6279614;23;20011;-79
2022/05/10 03:00:25;;;;;;;22.90;16.85;;;;;;;13.81;74.99;101694.59;6362829;23;20013;-79
2022/05/10 03:03:03;;;;;;;22.08;17.73;;;;;;;13.92;74.33;101690.97;6400128;23;20044;-79
2022/05/10 03:05:35;;;;;;;22.52;16.92;;;;;;;13.95;74.42;101694.41;6399624;23;20014;-79
2022/05/10 03:08:06;;;;;;;21.37;17.10;;;;;;;13.92;74.33;101683.97;6399973;23;20009;-80
2022/05/10 03:10:38;;;;;;;27.33;17.50;;;;;;;13.86;74.61;101689.28;6420278;23;20008;-78
2022/05/10 03:13:09;;;;;;;21.67;17.37;;;;;;;13.84;74.55;101673.56;6467080;23;20077;-79
2022/05/10 03:15:41;;;;;;;23.57;16.80;;;;;;;13.94;74.14;101674.34;6467866;23;20001;-79
2022/05/10 03:18:12;;;;;;;23.03;16.77;;;;;;;13.99;73.63;101679.50;6465044;23;20036;-79
2022/05/10 03:20:44;;;;;;;28.00;17.80;;;;;;;13.92;73.99;101676.09;6465784;23;20012;-79
2022/05/10 03:23:15;;;;;;;19.27;16.50;;;;;;;14.04;74.20;101672.47;6466654;23;20031;-79
2022/05/10 03:25:46;;;;;;;18.33;16.13;;;;;;;14.07;73.71;101672.44;6467372;23;20008;-79
2022/05/10 03:28:18;;;;;;;19.63;17.53;;;;;;;13.95;73.90;101670.81;6467645;23;20358;-80
2022/05/10 03:30:49;;;;;;;21.07;17.67;;;;;;;13.89;74.55;101670.03;6473897;23;20008;-80
2022/05/10 03:33:22;;;;;;;23.77;17.07;;;;;;;14.00;74.20;101666.38;6475901;23;20426;-80
2022/05/10 03:35:53;;;;;;;22.52;16.52;;;;;;;13.90;74.65;101661.28;6477095;23;20005;-79
2022/05/10 03:38:25;;;;;;;19.87;16.43;;;;;;;13.92;75.02;101657.75;6474738;23;20008;-78
2022/05/10 03:40:56;;;;;;;23.47;17.47;;;;;;;13.94;74.94;101660.34;6473495;23;20008;-79
2022/05/10 03:43:27;;;;;;;21.73;16.67;;;;;;;13.93;75.06;101661.25;6473015;23;20395;-79
2022/05/10 03:46:05;;;;;;;20.10;16.23;;;;;;;13.88;75.39;101663.94;6466263;23;20426;-80
2022/05/10 03:48:36;;;;;;;21.40;16.60;;;;;;;13.82;75.33;101653.53;6464373;23;20024;-79
2022/05/10 03:51:07;;;;;;;22.77;17.13;;;;;;;13.82;75.36;101661.38;6465636;23;20009;-79
2022/05/10 03:53:39;;;;;;;22.23;17.23;;;;;;;13.86;75.21;101649.97;6464704;23;20019;-78
2022/05/10 03:56:11;;;;;;;21.07;16.67;;;;;;;13.78;75.52;101659.66;6465656;23;20028;-79
2022/05/10 03:58:43;;;;;;;22.90;17.30;;;;;;;13.73;75.59;101651.84;6462928;23;20016;-79
2022/05/10 04:01:18;;;;;;;24.30;16.10;;;;;;;13.72;75.40;101650.16;6465316;23;20011;-78
2022/05/10 04:03:50;;;;;;;22.98;16.73;;;;;;;13.85;75.13;101651.72;6465360;23;20612;-79
2022/05/10 04:06:22;;;;;;;25.23;17.37;;;;;;;13.77;75.55;101648.34;6464616;23;20011;-78
2022/05/10 04:08:54;;;;;;;;;;;;;;;13.86;73.49;101644.72;6465623;23;20186;-79
2022/05/10 04:11:26;;;;;;;28.65;18.25;;;;;;;13.83;74.79;101642.16;6465109;23;20211;-78
2022/05/10 04:13:57;;;;;;;28.80;17.83;;;;;;;13.85;74.34;101641.25;6466335;23;20012;-79
2022/05/10 04:16:29;;;;;;;29.53;18.07;;;;;;;13.97;73.12;101637.56;6465704;23;20008;-79
2022/05/10 04:19:00;;;;;;;29.20;18.27;;;;;;;14.08;72.76;101641.84;6465000;23;20648;-78
2022/05/10 04:21:31;;;;;;;28.30;18.20;;;;;;;14.11;72.16;101647.88;6464990;23;20015;-80
2022/05/10 04:24:03;;;;;;;25.73;17.17;;;;;;;14.15;71.81;101646.97;6467289;23;20710;-78
2022/05/10 04:26:35;;;;;;;26.67;17.92;;;;;;;14.18;72.14;101649.56;6465641;23;20015;-79
2022/05/10 04:29:06;;;;;;;31.20;17.53;;;;;;;14.27;71.94;101643.31;6438880;23;20132;-79
2022/05/10 04:31:38;;;;;;;24.07;17.60;;;;;;;14.33;71.47;101643.22;6465413;23;20466;-79
2022/05/10 04:34:09;;;;;;;23.20;17.23;;;;;;;14.36;71.51;101637.94;6465031;23;20004;-79
2022/05/10 04:36:40;;;;;;;25.10;17.53;;;;;;;14.45;71.14;101639.53;6465879;23;20001;-78
2022/05/10 04:39:12;;;;;;;25.43;17.87;;;;;;;14.49;70.92;101645.59;6466575;23;20099;-78
2022/05/10 04:41:48;;;;;;;24.60;17.13;;;;;;;14.56;70.35;101637.59;6467419;23;20001;-78
2022/05/10 04:44:23;;;;;;;24.10;17.90;;;;;;;14.61;70.42;101628.84;6467403;23;20008;-79
2022/05/10 04:46:54;;;;;;;24.50;16.02;;;;;;;14.70;70.41;101633.91;6468359;23;20434;-79
2022/05/10 04:49:25;;;;;;;26.17;17.13;;;;;;;14.75;70.04;101632.97;6467916;23;20031;-79
2022/05/10 04:51:57;;;;;;;24.07;16.77;;;;;;;14.83;69.86;101627.59;6468711;23;20440;-80
2022/05/10 04:54:28;;;;;;;31.13;17.03;;;;;;;14.92;68.76;101621.31;6469810;23;20007;-80
2022/05/10 04:56:59;;;;;;;26.90;16.67;;;;;;;14.98;68.23;101620.34;6470191;23;20411;-80
2022/05/10 04:59:31;;;;;;;20.40;16.07;;;;;;;15.06;67.38;101623.69;6469545;23;20009;-80
2022/05/10 05:02:02;;;;;;;26.07;16.10;;;;;;;15.17;67.43;101620.88;6468497;23;20368;-79
2022/05/10 05:04:34;;;;;;;27.20;16.80;;;;;;;15.21;67.26;101631.28;6468595;23;20012;-80
2022/05/10 05:07:05;;;;;;;24.83;16.23;;;;;;;15.30;67.25;101625.00;6469583;23;19996;-79
2022/05/10 05:09:37;;;;;;;24.37;16.30;;;;;;;15.40;66.79;101636.19;6468972;23;20374;-80
2022/05/10 05:12:10;;;;;;;25.93;17.23;;;;;;;15.51;66.45;101631.59;6469466;23;20011;-79
2022/05/10 05:14:41;;;;;;;20.08;14.82;;;;;;;15.59;66.02;101632.31;6467697;23;20005;-79
2022/05/10 05:17:13;;;;;;;21.60;15.97;;;;;;;15.66;65.66;101633.94;6474318;23;20028;-79
2022/05/10 05:19:44;;;;;;;27.10;15.23;;;;;;;15.73;65.68;101639.03;6471817;23;20032;-80
2022/05/10 05:22:15;;;;;;;24.87;15.33;;;;;;;15.78;65.64;101638.09;6476346;23;20454;-79
2022/05/10 05:24:47;;;;;;;21.67;14.33;;;;;;;15.82;65.43;101636.25;6477191;23;20029;-80
2022/05/10 05:27:19;;;;;;;28.20;14.60;;;;;;;15.86;65.79;101638.78;6476978;23;20012;-80
2022/05/10 05:29:52;;;;;;;22.83;14.13;;;;;;;15.87;65.48;101644.91;6472554;23;20009;-78
2022/05/10 05:32:26;;;;;;;;;;;;;;;15.99;65.37;101635.91;6476249;23;20017;-80
2022/05/10 05:34:58;;;;;;;19.73;14.32;;;;;;;15.99;65.29;101634.13;6479057;23;20311;-80
2022/05/10 05:37:33;;;;;;;19.85;13.52;;;;;;;16.05;64.93;101635.75;6477393;23;20012;-80
2022/05/10 05:40:08;;;;;;;24.75;13.73;;;;;;;16.12;64.55;101639.13;6478097;23;20046;-81
2022/05/10 05:42:39;;;;;;;23.40;13.32;;;;;;;16.20;64.71;101639.84;6467171;23;20012;-81
2022/05/10 05:45:14;;;;;;;17.57;13.40;;;;;;;16.28;64.29;101642.28;6467917;23;20004;-80
2022/05/10 05:47:46;;;;;;;23.40;12.35;;;;;;;16.36;64.04;101638.56;6466922;23;20330;-80
2022/05/10 05:50:20;;;;;;;18.92;12.07;;;;;;;16.45;64.03;101632.22;6440578;23;20017;-79
2022/05/10 05:52:53;;;;;;;19.15;13.05;;;;;;;16.62;63.50;101634.44;6466953;23;20016;-79
2022/05/10 05:55:24;;;;;;;19.25;13.05;;;;;;;16.79;63.19;101634.00;6467499;23;20028;-80
2022/05/10 05:57:57;;;;;;;16.47;11.77;;;;;;;16.91;62.52;101619.72;6439492;23;20143;-80
2022/05/10 06:00:29;;;;;;;19.13;12.25;;;;;;;16.99;61.83;101615.13;6467335;23;20039;-79
2022/05/10 06:03:03;;;;;;;20.17;11.00;;;;;;;17.11;61.79;101616.56;6467168;23;20074;-80
2022/05/10 06:05:35;;;;;;;18.70;10.93;;;;;;;17.18;61.34;101607.59;6466823;23;20012;-80
2022/05/10 06:08:09;;;;;;;19.20;11.27;;;;;;;17.26;61.49;101607.38;6466150;23;20099;-79
2022/05/10 06:10:40;;;;;;;24.45;11.65;;;;;;;17.31;61.17;101616.88;6466251;23;20106;-80
2022/05/10 06:13:11;;;;;;;15.70;10.90;;;;;;;17.38;60.95;101616.72;6467076;23;20004;-80
2022/05/10 06:15:43;;;;;;;20.73;11.23;;;;;;;17.45;60.93;101612.97;6440249;23;20100;-80
2022/05/10 06:18:15;;;;;;;44.07;12.50;;;;;;;17.57;60.31;101610.00;6466965;23;20817;-81
2022/05/10 06:20:46;;;;;;;19.63;9.70;;;;;;;17.74;59.72;101620.06;6439576;23;20060;-80
2022/05/10 06:23:18;;;;;;;15.83;10.43;;;;;;;17.85;59.76;101615.34;6466396;23;20012;-79
2022/05/10 06:25:50;;;;;;;13.63;9.73;;;;;;;17.98;59.26;101613.22;6466234;23;20012;-79
2022/05/10 06:28:21;;;;;;;11.65;9.07;;;;;;;18.10;58.61;101617.25;6466908;23;20010;-79
2022/05/10 06:30:55;;;;;;;14.40;9.03;;;;;;;18.26;58.62;101611.47;6465979;23;20031;-79
2022/05/10 06:33:27;;;;;;;13.25;8.63;;;;;;;18.35;58.19;101611.19;6439772;23;20008;-79
2022/05/10 06:35:59;;;;;;;13.63;8.20;;;;;;;18.38;58.20;101606.69;6466027;23;20063;-79
2022/05/10 06:38:31;;;;;;;13.80;8.98;;;;;;;18.46;57.79;101602.94;6466344;23;20004;-79
2022/05/10 06:41:04;;;;;;;13.82;8.13;;;;;;;18.57;58.16;101606.09;6467154;23;20493;-79
2022/05/10 06:43:36;;;;;;;14.98;8.55;;;;;;;18.65;57.00;101600.56;6466425;23;20008;-79
2022/05/10 06:46:12;;;;;;;13.82;9.07;;;;;;;18.67;57.09;101604.84;6466437;23;20058;-80
2022/05/10 06:48:46;;;;;;;11.90;8.73;;;;;;;18.81;56.49;101600.91;6466151;23;20308;-81
2022/05/10 06:51:21;;;;;;;12.98;8.27;;;;;;;18.96;56.27;101603.03;6465903;23;20012;-81
2022/05/10 06:53:53;;;;;;;10.50;7.82;;;;;;;18.94;56.27;101596.94;6467735;23;20064;-80
2022/05/10 06:56:29;;;;;;;12.95;8.13;;;;;;;19.04;56.09;101600.13;6466394;23;20046;-80
2022/05/10 06:59:00;;;;;;;12.68;7.30;;;;;;;19.06;56.08;101590.34;6466462;23;20007;-81
2022/05/10 07:01:31;;;;;;;11.70;7.03;;;;;;;19.15;56.26;101597.09;6466349;23;20013;-79
2022/05/10 07:04:04;;;;;;;11.57;8.07;;;;;;;19.10;55.86;101589.34;6484657;23;20082;-81
2022/05/10 07:06:36;;;;;;;14.35;7.95;;;;;;;19.20;56.61;101590.72;6486557;23;20083;-80
2022/05/10 07:09:07;;;;;;;17.87;6.83;;;;;;;19.32;55.81;101589.44;6472535;23;20039;-80
2022/05/10 07:11:38;;;;;;;16.03;7.93;;;;;;;19.42;55.15;101589.97;6469704;23;20016;-81
2022/05/10 07:14:10;;;;;;;10.47;7.47;;;;;;;19.42;55.03;101584.66;6468430;23;20018;-81
2022/05/10 07:16:41;;;;;;;9.27;7.87;;;;;;;19.57;55.39;101589.38;6468078;23;20096;-81
2022/05/10 07:19:12;;;;;;;9.37;7.10;;;;;;;19.87;54.49;101589.16;6468265;23;20032;-82
2022/05/10 07:21:44;;;;;;;12.03;8.23;;;;;;;19.95;53.92;101580.94;6466527;23;20036;-81
2022/05/10 07:24:19;;;;;;;12.20;7.18;;;;;;;20.06;53.32;101581.38;6467262;23;20434;-80
2022/05/10 07:26:50;;;;;;;10.65;7.22;;;;;;;20.20;52.81;101579.00;6468261;23;20259;-78
2022/05/10 07:29:22;;;;;;;13.10;7.03;;;;;;;20.38;52.89;101574.75;6466836;23;20095;-80
2022/05/10 07:31:54;;;;;;;18.50;6.97;;;;;;;20.69;52.40;101570.00;6468450;23;20394;-81
2022/05/10 07:34:25;;;;;;;12.07;6.25;;;;;;;20.70;51.72;101571.69;6468597;23;20005;-80
2022/05/10 07:36:57;;;;;;;13.90;6.53;;;;;;;20.76;51.58;101574.09;6468063;23;20012;-81
2022/05/10 07:39:29;;;;;;;14.13;6.27;;;;;;;20.81;51.39;101574.75;6466212;23;20011;-82
2022/05/10 07:42:03;;;;;;;10.35;6.47;;;;;;;20.81;51.24;101572.09;6466843;23;20005;-80
2022/05/10 07:44:34;;;;;;;10.82;5.43;;;;;;;20.97;51.34;101568.78;6467413;23;20009;-81
2022/05/10 07:47:06;;;;;;;12.30;6.00;;;;;;;21.11;50.17;101564.59;6467054;23;20004;-82
2022/05/10 07:49:38;;;;;;;9.47;5.80;;;;;;;21.25;49.47;101563.09;6466297;23;20009;-81
2022/05/10 07:52:09;;;;;;;9.15;5.63;;;;;;;21.43;49.32;101564.94;6466473;23;20095;-80
2022/05/10 07:54:41;;;;;;;8.70;5.57;;;;;;;21.50;48.67;101562.88;6467296;23;20011;-82
2022/05/10 07:57:12;;;;;;;9.30;5.38;;;;;;;21.76;48.70;101558.16;6467212;23;20051;-81
2022/05/10 07:59:44;;;;;;;12.60;5.77;;;;;;;21.96;48.09;101562.47;6467707;23;20394;-82
2022/05/10 08:02:16;;;;;;;7.53;5.03;;;;;;;21.97;47.46;101559.75;6467773;23;20747;-81
2022/05/10 08:04:47;;;;;;;;;;;;;;;22.19;47.34;101553.41;6467394;23;20004;-82
2022/05/10 08:07:19;;;;;;;11.10;5.33;;;;;;;22.20;47.62;101566.63;6466949;23;20160;-81
2022/05/10 08:09:52;;;;;;;14.93;5.67;;;;;;;22.03;47.34;101562.13;6467393;23;20426;-81
2022/05/10 08:12:23;;;;;;;8.25;4.70;;;;;;;22.08;47.24;101563.69;6468235;23;20078;-81
2022/05/10 08:14:54;;;;;;;9.33;5.17;;;;;;;21.97;47.09;101554.44;6468100;23;20016;-80
2022/05/10 08:17:27;;;;;;;9.50;5.17;;;;;;;21.93;47.15;101557.31;6467868;23;20361;-80
2022/05/10 08:19:58;;;;;;;12.98;5.47;;;;;;;21.89;47.14;101551.31;6470666;23;20737;-83
2022/05/10 08:22:31;;;;;;;9.40;5.47;;;;;;;21.99;47.62;101563.22;6475203;23;20040;-81
2022/05/10 08:25:04;;;;;;;8.68;4.97;;;;;;;22.06;47.66;101550.50;6447817;23;20008;-81
2022/05/10 08:27:39;;;;;;;9.48;5.07;;;;;;;22.15;46.30;101562.44;6479297;23;20091;-82
2022/05/10 08:30:11;;;;;;;7.65;5.30;;;;;;;21.97;46.57;101551.78;6476886;23;20009;-80
2022/05/10 08:32:43;;;;;;;11.48;5.55;;;;;;;22.05;47.01;101554.06;6479589;23;20016;-82
2022/05/10 08:35:14;;;;;;;9.43;5.82;;;;;;;21.98;46.33;101547.38;6481127;23;20442;-80
2022/05/10 08:37:46;;;;;;;10.63;5.50;;;;;;;21.95;47.14;101542.19;6476268;23;20090;-82
2022/05/10 08:40:26;;;;;;;10.43;5.40;;;;;;;21.87;46.88;101537.25;6476681;23;20005;-82
2022/05/10 08:43:04;;;;;;;10.40;5.57;;;;;;;21.81;46.61;101535.75;6480803;23;20026;-82
2022/05/10 08:45:40;;;;;;;10.55;5.13;;;;;;;21.81;47.05;101541.06;6481248;23;20076;-82
2022/05/10 08:48:12;;;;;;;9.95;5.28;;;;;;;21.92;46.60;101540.53;6478634;23;20005;-80
2022/05/10 08:50:48;;;;;;;10.75;5.45;;;;;;;22.19;46.03;101540.13;6475148;23;20015;-82
2022/05/10 08:53:20;;;;;;;14.40;5.38;;;;;;;22.20;45.67;101525.91;6479967;23;20013;-82
2022/05/10 08:56:08;;;;;;;14.40;5.20;;;;;;;22.42;45.16;101536.34;6475382;23;20012;-82
2022/05/10 08:59:02;;;;;;;9.65;5.30;;;;;;;22.49;45.21;101532.47;6477358;23;20011;-80
2022/05/10 09:01:41;;;;;;;15.85;5.07;;;;;;;22.51;45.12;101527.91;6479216;23;20012;-82
2022/05/10 09:04:29;;;;;;;7.85;5.05;;;;;;;22.79;44.72;101526.47;6474276;23;20013;-81
2022/05/10 09:07:35;;;;;;;11.30;4.60;;;;;;;23.02;43.36;101535.03;6479490;23;20019;-84
2022/05/10 09:10:24;;;;;;;7.50;4.60;;;;;;;23.28;43.53;101525.66;6481531;23;20000;-83
2022/05/10 09:13:05;;;;;;;11.73;5.20;;;;;;;23.14;42.79;101521.13;6479277;23;20262;-82
2022/05/10 09:15:40;;;;;;;11.80;5.00;;;;;;;23.43;42.31;101529.31;6474354;23;20043;-81
2022/05/10 09:18:49;;;;;;;8.05;4.63;;;;;;;24.07;42.40;101523.97;6473968;23;20081;-81
2022/05/10 09:21:35;;;;;;;10.48;5.47;;;;;;;23.87;41.11;101511.81;6447330;23;20013;-78
2022/05/10 09:24:25;;;;;;;15.40;5.03;;;;;;;23.84;42.09;101523.47;6471259;23;20035;-80
2022/05/10 09:27:05;;;;;;;12.32;5.60;;;;;;;23.40;42.39;101521.50;6473128;23;20001;-82
2022/05/10 09:29:46;;;;;;;7.20;4.30;;;;;;;23.83;42.39;101524.44;6472765;23;20125;-81
2022/05/10 09:35:26;;;;;;;12.82;4.82;;;;;;;24.11;41.35;101506.88;6469424;23;20012;-80
2022/05/10 09:38:09;;;;;;;8.45;5.63;;;;;;;24.01;41.60;101511.88;6469653;23;20004;-80
2022/05/10 09:40:41;;;;;;;12.90;5.18;;;;;;;24.05;41.45;101518.72;6470188;23;20096;-81
2022/05/10 09:43:15;;;;;;;8.43;5.10;;;;;;;24.05;41.04;101509.88;6466636;23;20036;-82
2022/05/10 09:46:06;;;;;;;13.57;5.43;;;;;;;24.07;41.86;101507.97;6472025;23;20012;-82
2022/05/10 09:48:42;;;;;;;9.13;5.82;;;;;;;23.82;42.06;101514.69;6470107;23;20023;-80
2022/05/10 09:51:40;;;;;;;8.05;5.55;;;;;;;24.01;41.73;101515.38;6443360;23;20024;-82
2022/05/10 09:54:30;;;;;;;8.68;4.97;;;;;;;24.21;41.38;101497.38;6468407;23;20016;-84
2022/05/10 09:57:02;;;;;;;8.68;4.97;;;;;;;24.85;39.60;101515.81;6469896;23;20004;-81
2022/05/10 09:59:46;;;;;;;10.20;5.30;;;;;;;25.88;38.03;101497.75;6438865;23;20172;-83
2022/05/10 10:02:36;;;;;;;13.60;6.10;;;;;;;25.63;38.43;101486.00;6473384;23;20009;-81
2022/05/10 10:05:20;;;;;;;11.25;4.88;;;;;;;25.91;37.96;101478.84;6469380;23;20910;-81
2022/05/10 10:07:54;;;;;;;8.85;5.00;;;;;;;26.53;36.77;101478.22;6469512;23;20072;-83
2022/05/10 10:10:27;;;;;;;12.82;4.38;;;;;;;27.43;35.25;101475.47;6440651;23;20088;-85
2022/05/10 10:13:19;;;;;;;61.28;9.95;;;;;;;27.58;34.60;101476.16;6468465;23;20035;-80
2022/05/10 10:15:54;;;;;;;11.07;4.60;;;;;;;28.20;33.83;101470.59;6441152;23;20013;-81
2022/05/10 10:18:45;;;;;;;14.00;4.93;;;;;;;28.61;32.81;101480.94;6442382;23;20009;-82
2022/05/10 10:21:44;;;;;;;7.43;4.63;;;;;;;28.95;30.88;101470.22;6468364;23;20461;-85
2022/05/10 10:24:29;;;;;;;9.77;4.78;;;;;;;29.64;30.34;101473.53;6466241;23;20017;-83
2022/05/10 10:27:08;;;;;;;7.75;4.05;;;;;;;29.72;29.57;101462.16;6467668;23;20139;-81
2022/05/10 10:29:51;;;;;;;11.02;4.03;;;;;;;30.23;29.11;101468.63;6466882;23;20054;-81
2022/05/10 10:32:35;;;;;;;11.95;4.80;;;;;;;29.63;29.07;101474.50;6467785;23;20012;-82
2022/05/10 10:35:18;;;;;;;18.42;4.78;;;;;;;28.96;30.36;101474.63;6465113;23;20087;-77
2022/05/10 10:38:06;;;;;;;14.10;4.75;;;;;;;28.90;30.65;101473.25;6465442;23;20338;-79
2022/05/10 10:40:45;;;;;;;15.10;4.75;;;;;;;29.30;29.30;101451.28;6466413;23;20446;-80
2022/05/10 10:43:27;;;;;;;10.60;4.07;;;;;;;29.71;29.35;101497.22;6465713;23;20008;-80
2022/05/10 10:46:27;;;;;;;10.77;4.80;;;;;;;29.32;29.23;101462.78;6465879;23;20008;-82
2022/05/10 10:49:06;;;;;;;14.88;5.28;;;;;;;27.89;30.65;101465.84;6463977;23;20043;-82
2022/05/10 10:51:38;;;;;;;12.25;5.75;;;;;;;26.28;33.14;101460.38;6439299;23;20009;-80
2022/05/10 10:54:17;;;;;;;;;;;;;;;27.18;32.84;101461.19;6467677;23;20012;-83
2022/05/10 10:57:13;;;;;;;10.02;4.90;;;;;;;27.77;32.61;101452.41;6466766;23;19963;-81
2022/05/10 11:00:06;;;;;;;23.40;6.22;;;;;;;26.11;34.28;101453.50;6466453;23;20005;-84
2022/05/10 11:02:53;;;;;;;14.02;5.45;;;;;;;25.82;35.49;101456.28;6465857;23;20032;-80
2022/05/10 11:06:06;;;;;;;22.00;6.65;;;;;;;25.99;34.92;101452.50;6466373;23;20009;-82
2022/05/10 11:08:41;;;;;;;15.80;4.78;;;;;;;26.98;33.19;101438.53;6466605;23;20028;-82
2022/05/10 11:11:12;;;;;;;11.48;5.28;;;;;;;26.73;33.23;101429.59;6463992;23;20004;-82
2022/05/10 11:14:26;;;;;;;11.23;5.38;;;;;;;26.17;34.58;101431.69;6466334;23;20019;-82
2022/05/10 11:17:03;;;;;;;14.43;5.55;;;;;;;26.28;34.69;101425.63;6465320;23;20012;-81
2022/05/10 11:20:03;;;;;;;11.63;5.50;;;;;;;25.79;34.99;101438.66;6465361;23;20179;-83
2022/05/10 11:22:44;;;;;;;12.07;4.75;;;;;;;25.20;35.48;101411.38;6466254;23;20038;-80
2022/05/10 11:25:30;;;;;;;13.10;4.93;;;;;;;25.54;35.58;101426.06;6466115;23;20009;-86
2022/05/10 11:28:20;;;;;;;16.75;4.53;;;;;;;26.27;34.90;101418.56;6463459;23;20013;-82
2022/05/10 11:31:15;;;;;;;12.35;5.20;;;;;;;26.93;34.15;101416.59;6463746;23;20036;-84
2022/05/10 11:33:58;;;;;;;8.75;4.80;;;;;;;28.88;30.86;101416.19;6467309;23;20035;-83
2022/05/10 11:36:47;;;;;;;13.80;5.10;;;;;;;28.69;30.64;101414.13;6467911;23;20005;-84
2022/05/10 11:39:31;;;;;;;12.18;4.95;;;;;;;28.42;31.22;101414.44;6464744;23;20324;-80
2022/05/10 11:42:17;;;;;;;14.40;5.10;;;;;;;28.11;32.19;101411.47;6467709;23;20004;-82
2022/05/10 11:45:27;;;;;;;13.05;5.25;;;;;;;27.00;33.09;101411.66;6466230;23;20031;-82
2022/05/10 11:48:29;;;;;;;11.20;4.80;;;;;;;25.89;35.44;101393.50;6466217;23;20004;-82
2022/05/10 11:51:42;;;;;;;10.07;5.30;;;;;;;26.46;34.76;101396.75;6464790;23;20017;-83
2022/05/10 11:54:22;;;;;;;14.73;4.60;;;;;;;26.57;33.63;101395.03;6466557;23;20017;-84
2022/05/10 11:56:59;;;;;;;16.83;5.13;;;;;;;26.32;33.63;101392.38;6466756;23;20036;-83
2022/05/10 11:59:35;;;;;;;13.63;5.18;;;;;;;26.85;32.72;101395.75;6465473;23;20009;-81
2022/05/10 12:02:29;;;;;;;13.85;4.72;;;;;;;26.69;32.90;101406.69;6479839;23;20015;-83
2022/05/10 12:05:10;;;;;;;13.65;4.78;;;;;;;26.29;33.86;101393.44;6490562;23;20013;-80
2022/05/10 12:07:49;;;;;;;14.65;5.00;;;;;;;26.08;34.10;101394.91;6475521;23;20076;-82
2022/05/10 12:10:33;;;;;;;15.93;4.68;;;;;;;26.72;33.53;101400.28;6442008;23;20008;-82